Terminal Aerodrome Forecast
Issued by NWS Wichita, KS

Home | Current Version | Previous Version | Text Only | Print | Product List | Glossary Off
Versions: 1 2 3 4 5 6 7 8 9 10 11 12 13 14 15 16 17 18 19

424
FTUS43 KICT 231123
TAFICT
TAF
KICT 231123Z 2312/2412 08007KT P6SM VCTS SCT060CB OVC120
      TEMPO 2312/2313 -SHRA BKN060
     FM231400 06007KT P6SM BKN070
     FM231900 06010KT P6SM SCT060
     FM240400 11005KT P6SM SCT250=

USA.gov is the U.S. government's official web portal to all federal, state and local government web resources and services.